Time;durP1;ratioP1;P1;durP2;ratioP2;P2;SDS_P1;SDS_P2;PMS_P1;PMS_P2;Temp;Humidity;BMP_temperature;BMP_pressure;BME280_temperature;BME280_humidity;BME280_pressure;Samples;Min_cycle;Max_cycle;Signal;HPM_P1;HPM_P2
2022/10/11 00:00:19;;;;;;;7.93;7.03;;;17.30;99.90;;;;;;4594076;19;20014;-32
2022/10/11 00:02:10;;;;;;;10.75;7.47;;;17.30;99.90;;;;;;4593136;19;20361;-38
2022/10/11 00:03:41;;;;;;;12.00;8.30;;;17.30;99.90;;;;;;4593573;19;20095;-32
2022/10/11 00:05:12;;;;;;;9.80;7.28;;;17.30;99.90;;;;;;4591673;19;20026;-38
2022/10/11 00:06:43;;;;;;;10.80;8.02;;;17.30;99.90;;;;;;4590982;19;20035;-35
2022/10/11 00:08:14;;;;;;;9.20;7.68;;;17.30;99.90;;;;;;4592729;19;20498;-38
2022/10/11 00:09:46;;;;;;;10.45;7.60;;;17.30;99.90;;;;;;4592361;19;20018;-34
2022/10/11 00:11:17;;;;;;;10.02;7.95;;;17.30;99.90;;;;;;4592791;19;20022;-34
2022/10/11 00:12:48;;;;;;;10.10;7.53;;;17.30;99.90;;;;;;4590780;19;20472;-37
2022/10/11 00:14:19;;;;;;;;;;;17.30;99.90;;;;;;4594426;19;20023;-35
2022/10/11 00:15:50;;;;;;;10.32;7.38;;;17.30;99.90;;;;;;4592014;19;19927;-35
2022/10/11 00:17:21;;;;;;;10.57;8.05;;;17.30;99.90;;;;;;4592906;19;20038;-34
2022/10/11 00:18:52;;;;;;;9.38;7.45;;;17.30;99.90;;;;;;4590535;19;20019;-34
2022/10/11 00:20:25;;;;;;;10.55;7.55;;;17.30;99.90;;;;;;4592854;19;20011;-36
2022/10/11 00:21:56;;;;;;;12.07;8.25;;;17.30;99.90;;;;;;4591175;19;20049;-36
2022/10/11 00:23:27;;;;;;;10.65;7.82;;;17.30;99.90;;;;;;4591013;19;20343;-37
2022/10/11 00:24:58;;;;;;;11.57;8.65;;;17.30;99.90;;;;;;4593196;19;20019;-33
2022/10/11 00:26:30;;;;;;;11.07;7.65;;;17.30;99.90;;;;;;4591537;19;20027;-38
2022/10/11 00:28:01;;;;;;;10.93;7.40;;;17.30;99.90;;;;;;4592731;19;20014;-36
2022/10/11 00:29:32;;;;;;;11.77;8.23;;;17.30;99.90;;;;;;4592556;19;20010;-32
2022/10/11 00:31:08;;;;;;;11.05;8.20;;;17.30;99.90;;;;;;4591195;19;20015;-34
2022/10/11 00:32:39;;;;;;;10.98;8.10;;;17.30;99.90;;;;;;4592423;19;20014;-36
2022/10/11 00:34:11;;;;;;;11.27;8.10;;;17.30;99.90;;;;;;4591221;19;20036;-36
2022/10/11 00:35:42;;;;;;;;;;;17.30;99.90;;;;;;4593150;19;20318;-35
2022/10/11 00:37:13;;;;;;;10.05;7.40;;;17.30;99.90;;;;;;4591474;19;19959;-35
2022/10/11 00:38:44;;;;;;;10.60;7.85;;;17.30;99.90;;;;;;4591283;19;20011;-37
2022/10/11 00:40:16;;;;;;;11.50;8.43;;;17.30;99.90;;;;;;4589086;19;20014;-41
2022/10/11 00:41:48;;;;;;;10.70;8.88;;;17.30;99.90;;;;;;4592378;19;20027;-34
2022/10/11 00:43:21;;;;;;;12.23;8.48;;;17.30;99.90;;;;;;4592063;19;20010;-34
2022/10/11 00:45:14;;;;;;;11.25;8.38;;;17.30;99.90;;;;;;4592718;19;20014;-38
2022/10/11 00:47:14;;;;;;;12.38;8.32;;;17.30;99.90;;;;;;4590858;19;20015;-37
2022/10/11 00:48:47;;;;;;;10.82;7.93;;;17.30;99.90;;;;;;4589692;19;20351;-32
2022/10/11 00:50:19;;;;;;;11.23;8.10;;;17.30;99.90;;;;;;4590392;19;20046;-33
2022/10/11 00:51:59;;;;;;;10.95;8.02;;;17.30;99.90;;;;;;4588398;19;20101;-35
2022/10/11 00:53:30;;;;;;;13.45;8.40;;;17.30;99.90;;;;;;4588895;19;20015;-35
2022/10/11 00:55:06;;;;;;;9.90;7.93;;;17.30;99.90;;;;;;4590638;19;20010;-33
2022/10/11 00:56:38;;;;;;;12.43;9.10;;;17.30;99.90;;;;;;4589240;19;20026;-33
2022/10/11 00:58:09;;;;;;;12.38;8.52;;;17.30;99.90;;;;;;4589603;19;20021;-34
2022/10/11 00:59:42;;;;;;;10.02;8.20;;;17.30;99.90;;;;;;4588294;19;20479;-36
2022/10/11 01:01:13;;;;;;;12.10;9.63;;;17.30;99.90;;;;;;4588934;19;20097;-37
2022/10/11 01:02:44;;;;;;;12.85;9.02;;;17.30;99.90;;;;;;4588213;19;20078;-34
2022/10/11 01:04:15;;;;;;;11.48;9.25;;;17.30;99.90;;;;;;4590612;19;20552;-41
2022/10/11 01:05:46;;;;;;;11.68;8.90;;;17.30;99.90;;;;;;4589375;19;20018;-32
2022/10/11 01:07:18;;;;;;;14.02;9.45;;;17.30;99.90;;;;;;4590222;19;20014;-38
2022/10/11 01:08:49;;;;;;;12.18;9.45;;;17.30;99.90;;;;;;4590298;19;20031;-33
2022/10/11 01:10:21;;;;;;;11.38;8.88;;;17.30;99.90;;;;;;4588104;19;20025;-33
2022/10/11 01:11:52;;;;;;;11.15;9.23;;;17.30;99.90;;;;;;4590023;19;20483;-36
2022/10/11 01:13:38;;;;;;;13.00;9.93;;;17.30;99.90;;;;;;4589271;19;20011;-32
2022/10/11 01:15:15;;;;;;;11.77;8.57;;;17.30;99.90;;;;;;4590372;19;20044;-35
2022/10/11 01:17:13;;;;;;;11.95;9.70;;;17.30;99.90;;;;;;4589877;19;20026;-34
2022/10/11 01:18:47;;;;;;;13.27;9.43;;;17.30;99.90;;;;;;4587735;19;21066;-39
2022/10/11 01:20:40;;;;;;;14.48;10.00;;;17.30;99.90;;;;;;4589380;19;20728;-36
2022/10/11 01:22:32;;;;;;;12.73;9.55;;;17.30;99.90;;;;;;4589522;19;20019;-38
2022/10/11 01:24:26;;;;;;;;;;;17.20;99.90;;;;;;4589421;19;20026;-43
2022/10/11 01:26:18;;;;;;;11.95;9.35;;;17.20;99.90;;;;;;4587657;19;19926;-38
2022/10/11 01:27:52;;;;;;;;;;;17.20;99.90;;;;;;4590667;19;20012;-40
2022/10/11 01:29:44;;;;;;;11.80;9.70;;;17.20;99.90;;;;;;4588707;19;20270;-34
2022/10/11 01:31:31;;;;;;;12.25;9.45;;;17.20;99.90;;;;;;4589955;19;20476;-34
2022/10/11 01:33:20;;;;;;;11.60;9.32;;;17.20;99.90;;;;;;4589750;19;20054;-36
2022/10/11 01:34:55;;;;;;;14.05;10.10;;;17.20;99.90;;;;;;4588996;19;20010;-35
2022/10/11 01:36:39;;;;;;;12.27;9.27;;;17.20;99.90;;;;;;4589554;19;20044;-36
2022/10/11 01:38:18;;;;;;;13.55;9.98;;;17.20;99.90;;;;;;4589359;19;20018;-31
2022/10/11 01:40:10;;;;;;;12.30;9.95;;;17.20;99.90;;;;;;4589851;19;20010;-33
2022/10/11 01:41:46;;;;;;;12.45;9.68;;;17.20;99.90;;;;;;4588771;19;20021;-36
2022/10/11 01:43:17;;;;;;;13.30;10.60;;;17.20;99.90;;;;;;4589428;19;20401;-36
2022/10/11 01:44:48;;;;;;;12.77;9.95;;;17.20;99.90;;;;;;4588237;19;20039;-36
2022/10/11 01:46:19;;;;;;;13.07;9.68;;;17.20;99.90;;;;;;4588566;19;20388;-36
2022/10/11 01:48:10;;;;;;;12.82;9.60;;;17.20;99.90;;;;;;4589082;19;20123;-36
2022/10/11 01:49:41;;;;;;;12.65;10.13;;;17.20;99.90;;;;;;4588162;19;20022;-38
2022/10/11 01:51:12;;;;;;;12.13;9.60;;;17.20;99.90;;;;;;4588581;19;20014;-39
2022/10/11 01:52:43;;;;;;;14.23;10.60;;;17.20;99.90;;;;;;4587875;19;20415;-35
2022/10/11 01:54:30;;;;;;;14.15;10.82;;;17.20;99.90;;;;;;4588092;19;20043;-39
2022/10/11 01:56:20;;;;;;;12.98;10.63;;;17.20;99.90;;;;;;4590304;19;20025;-34
2022/10/11 01:57:51;;;;;;;13.90;10.85;;;17.20;99.90;;;;;;4590351;19;20398;-35
2022/10/11 01:59:39;;;;;;;15.18;10.43;;;17.20;99.90;;;;;;4591281;19;20451;-33
2022/10/11 02:01:30;;;;;;;15.63;10.35;;;17.20;99.90;;;;;;4590264;19;20113;-34
2022/10/11 02:03:19;;;;;;;13.50;10.15;;;17.20;99.90;;;;;;4590398;19;20054;-34
2022/10/11 02:04:54;;;;;;;13.60;10.65;;;17.20;99.90;;;;;;4588594;19;20393;-36
2022/10/11 02:06:36;;;;;;;13.55;11.43;;;17.20;99.90;;;;;;4589547;19;20018;-36
2022/10/11 02:08:16;;;;;;;14.45;10.48;;;17.20;99.90;;;;;;4589669;19;20452;-31
2022/10/11 02:09:58;;;;;;;12.75;9.85;;;17.20;99.90;;;;;;4588952;19;20015;-36
2022/10/11 02:11:30;;;;;;;15.52;10.52;;;17.20;99.90;;;;;;4590123;19;20023;-35
2022/10/11 02:13:08;;;;;;;14.63;10.52;;;17.20;99.90;;;;;;4589306;19;20026;-38
2022/10/11 02:14:41;;;;;;;15.68;11.27;;;17.20;99.90;;;;;;4588182;19;20014;-32
2022/10/11 02:16:15;;;;;;;12.80;10.45;;;17.20;99.90;;;;;;4590239;19;20091;-33
2022/10/11 02:17:51;;;;;;;13.50;10.40;;;17.20;99.90;;;;;;4589258;19;20022;-36
2022/10/11 02:19:27;;;;;;;15.13;11.52;;;17.20;99.90;;;;;;4590276;19;20014;-32
2022/10/11 02:20:59;;;;;;;14.40;10.60;;;17.20;99.90;;;;;;4588920;19;20014;-34
2022/10/11 02:22:33;;;;;;;13.68;10.18;;;17.20;99.90;;;;;;4588869;19;20019;-36
2022/10/11 02:24:31;;;;;;;12.80;10.32;;;17.20;99.90;;;;;;4590053;19;20022;-34
2022/10/11 02:26:03;;;;;;;15.02;10.73;;;17.20;99.90;;;;;;4586957;19;20018;-36
2022/10/11 02:27:35;;;;;;;14.23;11.45;;;17.20;99.90;;;;;;4589805;19;20027;-35
2022/10/11 02:29:06;;;;;;;12.88;10.77;;;17.20;99.90;;;;;;4589666;19;20022;-36
2022/10/11 02:30:37;;;;;;;15.05;11.10;;;17.20;99.90;;;;;;4588678;19;20035;-34
2022/10/11 02:32:08;;;;;;;13.18;10.80;;;17.20;99.90;;;;;;4588703;19;20017;-37
2022/10/11 02:33:46;;;;;;;12.98;11.07;;;17.20;99.90;;;;;;4589635;19;20030;-36
2022/10/11 02:35:18;;;;;;;15.07;11.18;;;17.20;99.90;;;;;;4587997;19;20007;-35
2022/10/11 02:37:12;;;;;;;13.85;11.07;;;17.20;99.90;;;;;;4589644;19;20023;-37
2022/10/11 02:38:47;;;;;;;13.23;10.95;;;17.20;99.90;;;;;;4585292;19;20014;-34
2022/10/11 02:40:26;;;;;;;12.75;10.40;;;17.20;99.90;;;;;;4587347;19;20022;-38
2022/10/11 02:42:00;;;;;;;13.18;10.38;;;17.20;99.90;;;;;;4586283;19;20472;-33
2022/10/11 02:43:38;;;;;;;14.18;10.88;;;17.20;99.90;;;;;;4588264;19;20014;-37
2022/10/11 02:45:22;;;;;;;13.15;10.30;;;17.20;99.90;;;;;;4587490;19;20029;-37
2022/10/11 02:46:53;;;;;;;15.75;11.77;;;17.20;99.90;;;;;;4588777;19;20457;-37
2022/10/11 02:48:26;;;;;;;13.13;10.93;;;17.20;99.90;;;;;;4587904;19;20007;-35
2022/10/11 02:50:00;;;;;;;15.43;11.77;;;17.20;99.90;;;;;;4586461;19;20016;-34
2022/10/11 02:51:31;;;;;;;14.80;11.85;;;17.20;99.90;;;;;;4587553;19;20324;-33
2022/10/11 02:53:03;;;;;;;;;;;17.20;99.90;;;;;;4587919;19;20029;-38
2022/10/11 02:54:34;;;;;;;15.10;11.13;;;17.20;99.90;;;;;;4591142;19;19910;-32
2022/10/11 02:56:05;;;;;;;15.02;10.88;;;17.20;99.90;;;;;;4592258;19;20475;-37
2022/10/11 02:57:36;;;;;;;14.60;11.10;;;17.20;99.90;;;;;;4592806;19;20027;-36
2022/10/11 02:59:08;;;;;;;12.57;10.30;;;17.20;99.90;;;;;;4592585;19;20519;-34
2022/10/11 03:00:39;;;;;;;12.55;10.85;;;17.20;99.90;;;;;;4592110;19;20110;-37
2022/10/11 03:02:10;;;;;;;15.98;11.90;;;17.20;99.90;;;;;;4592720;19;20022;-38
2022/10/11 03:03:41;;;;;;;14.95;11.55;;;17.20;99.90;;;;;;4591928;19;20018;-33
2022/10/11 03:05:12;;;;;;;15.38;11.35;;;17.20;99.90;;;;;;4591023;19;20453;-38
2022/10/11 03:06:43;;;;;;;14.45;10.27;;;17.20;99.90;;;;;;4592235;19;20087;-38
2022/10/11 03:08:15;;;;;;;16.10;10.88;;;17.20;99.90;;;;;;4592345;19;20353;-34
2022/10/11 03:09:46;;;;;;;12.35;10.55;;;17.20;99.90;;;;;;4590569;19;20026;-32
2022/10/11 03:11:17;;;;;;;14.20;11.20;;;17.20;99.90;;;;;;4592039;19;20386;-35
2022/10/11 03:12:48;;;;;;;13.65;10.98;;;17.20;99.90;;;;;;4591145;19;20029;-33
2022/10/11 03:14:19;;;;;;;13.90;11.25;;;17.20;99.90;;;;;;4592708;19;20014;-35
2022/10/11 03:15:51;;;;;;;15.45;11.15;;;17.20;99.90;;;;;;4592120;19;20011;-36
2022/10/11 03:17:23;;;;;;;12.43;10.50;;;17.20;99.90;;;;;;4593179;19;20041;-39
2022/10/11 03:18:54;;;;;;;14.63;10.75;;;17.20;99.90;;;;;;4592044;19;20505;-36
2022/10/11 03:20:25;;;;;;;14.25;10.75;;;17.30;99.90;;;;;;4592793;19;20014;-37
2022/10/11 03:21:56;;;;;;;15.30;10.85;;;17.20;99.90;;;;;;4593204;19;20014;-38
2022/10/11 03:23:27;;;;;;;14.10;10.70;;;17.20;99.90;;;;;;4592782;19;20014;-36
2022/10/11 03:24:58;;;;;;;15.32;12.60;;;17.20;99.90;;;;;;4594057;19;20011;-36
2022/10/11 03:26:29;;;;;;;16.50;11.43;;;17.20;99.90;;;;;;4591332;19;20007;-37
2022/10/11 03:28:00;;;;;;;15.20;11.95;;;17.20;99.90;;;;;;4591940;19;20022;-33
2022/10/11 03:29:32;;;;;;;13.50;10.18;;;17.20;99.90;;;;;;4594521;19;20052;-36
2022/10/11 03:31:03;;;;;;;14.63;11.50;;;17.20;99.90;;;;;;4593364;19;20018;-38
2022/10/11 03:32:34;;;;;;;13.68;11.80;;;17.20;99.90;;;;;;4591656;19;20014;-34
2022/10/11 03:34:05;;;;;;;14.40;11.05;;;17.20;99.90;;;;;;4592286;19;20014;-34
2022/10/11 03:35:36;;;;;;;13.55;10.38;;;17.20;99.90;;;;;;4593820;19;20039;-34
2022/10/11 03:37:07;;;;;;;12.73;10.32;;;17.20;99.90;;;;;;4592682;19;20018;-33
2022/10/11 03:38:38;;;;;;;13.05;10.60;;;17.20;99.90;;;;;;4591816;19;20045;-35
2022/10/11 03:40:11;;;;;;;14.65;11.07;;;17.20;99.90;;;;;;4589192;19;20021;-37
2022/10/11 03:41:43;;;;;;;16.17;12.35;;;17.20;99.90;;;;;;4592146;19;20052;-33
2022/10/11 03:43:14;;;;;;;17.00;11.40;;;17.20;99.90;;;;;;4593165;19;20025;-34
2022/10/11 03:44:48;;;;;;;16.55;11.00;;;17.20;99.90;;;;;;4594630;19;20014;-35
2022/10/11 03:46:19;;;;;;;14.75;12.00;;;17.20;99.90;;;;;;4592854;19;20071;-33
2022/10/11 03:47:50;;;;;;;14.93;11.38;;;17.20;99.90;;;;;;4591864;19;20318;-36
2022/10/11 03:49:22;;;;;;;14.90;11.23;;;17.20;99.90;;;;;;4593402;19;20018;-37
2022/10/11 03:50:53;;;;;;;16.15;11.48;;;17.20;99.90;;;;;;4593652;19;20460;-34
2022/10/11 03:52:24;;;;;;;15.40;10.70;;;17.20;99.90;;;;;;4593334;19;20018;-34
2022/10/11 03:53:55;;;;;;;14.80;11.00;;;17.20;99.90;;;;;;4593315;19;20031;-38
2022/10/11 03:55:26;;;;;;;13.63;10.48;;;17.20;99.90;;;;;;4594143;19;20002;-35
2022/10/11 03:56:57;;;;;;;15.05;10.68;;;17.20;99.90;;;;;;4590001;19;20424;-37
2022/10/11 03:58:28;;;;;;;13.70;10.23;;;17.20;99.90;;;;;;4591317;19;20506;-35
2022/10/11 03:59:59;;;;;;;15.30;12.05;;;17.20;99.90;;;;;;4592938;19;20018;-34
2022/10/11 04:01:36;;;;;;;16.83;10.82;;;17.20;99.90;;;;;;4593536;19;20007;-36
2022/10/11 04:03:07;;;;;;;13.52;9.65;;;17.20;99.90;;;;;;4591695;19;20015;-33
2022/10/11 04:04:38;;;;;;;13.25;10.68;;;17.20;99.90;;;;;;4590261;19;20017;-34
2022/10/11 04:06:09;;;;;;;13.40;10.05;;;17.20;99.90;;;;;;4590803;19;20014;-33
2022/10/11 04:07:40;;;;;;;14.05;10.20;;;17.20;99.90;;;;;;4593634;19;20310;-35
2022/10/11 04:09:11;;;;;;;13.90;10.07;;;17.20;99.90;;;;;;4592932;19;20014;-34
2022/10/11 04:10:42;;;;;;;12.90;9.30;;;17.20;99.90;;;;;;4593391;19;20038;-38
2022/10/11 04:12:14;;;;;;;11.32;9.43;;;17.10;99.90;;;;;;4593099;19;20015;-32
2022/10/11 04:13:45;;;;;;;10.95;9.70;;;17.10;99.90;;;;;;4593506;19;20014;-33
2022/10/11 04:15:16;;;;;;;12.18;9.50;;;17.20;99.90;;;;;;4592681;19;20500;-37
2022/10/11 04:16:47;;;;;;;14.27;9.65;;;17.20;99.90;;;;;;4592803;19;20018;-36
2022/10/11 04:18:18;;;;;;;;;;;17.20;99.90;;;;;;4591478;19;20027;-33
2022/10/11 04:19:49;;;;;;;12.73;10.13;;;17.20;99.90;;;;;;4591407;19;19914;-33
2022/10/11 04:21:20;;;;;;;12.07;8.80;;;17.20;99.90;;;;;;4591757;19;20053;-34
2022/10/11 04:22:51;;;;;;;10.48;8.95;;;17.20;99.90;;;;;;4591014;19;20018;-38
2022/10/11 04:24:23;;;;;;;12.20;8.60;;;17.20;99.90;;;;;;4593566;19;20365;-36
2022/10/11 04:25:54;;;;;;;13.88;9.60;;;17.20;99.90;;;;;;4591117;19;20024;-36
2022/10/11 04:27:28;;;;;;;13.05;9.48;;;17.20;99.90;;;;;;4592710;19;20015;-33
2022/10/11 04:28:59;;;;;;;10.77;9.40;;;17.20;99.90;;;;;;4592646;19;20014;-35
2022/10/11 04:30:31;;;;;;;11.15;8.35;;;17.20;99.90;;;;;;4592021;19;20024;-36
2022/10/11 04:32:02;;;;;;;12.05;8.85;;;17.20;99.90;;;;;;4592320;19;20014;-34
2022/10/11 04:33:33;;;;;;;11.45;8.90;;;17.20;99.90;;;;;;4592031;19;20423;-36
2022/10/11 04:35:04;;;;;;;10.98;8.18;;;17.20;99.90;;;;;;4590396;19;20033;-36
2022/10/11 04:36:37;;;;;;;10.80;7.65;;;17.20;99.90;;;;;;4592443;19;20476;-35
2022/10/11 04:38:08;;;;;;;11.60;8.57;;;17.20;99.90;;;;;;4591883;19;20023;-39
2022/10/11 04:39:40;;;;;;;11.13;9.30;;;17.20;99.90;;;;;;4590477;19;20010;-34
2022/10/11 04:41:12;;;;;;;11.07;8.40;;;17.20;99.90;;;;;;4593061;19;20010;-39
2022/10/11 04:42:43;;;;;;;11.18;7.97;;;17.20;99.90;;;;;;4592207;19;20018;-35
2022/10/11 04:44:14;;;;;;;11.02;8.20;;;17.20;99.90;;;;;;4592886;19;20011;-33
2022/10/11 04:45:45;;;;;;;10.98;7.97;;;17.20;99.90;;;;;;4592081;19;20020;-35
2022/10/11 04:47:16;;;;;;;11.38;8.90;;;17.20;99.90;;;;;;4591597;19;20437;-32
2022/10/11 04:48:48;;;;;;;9.82;8.27;;;17.20;99.90;;;;;;4592851;19;20027;-32
2022/10/11 04:50:19;;;;;;;10.75;8.13;;;17.20;99.90;;;;;;4591182;19;20383;-33
2022/10/11 04:51:50;;;;;;;10.65;7.93;;;17.20;99.90;;;;;;4590351;19;20023;-36
2022/10/11 04:53:21;;;;;;;11.40;8.27;;;17.20;99.90;;;;;;4592328;19;20015;-35
2022/10/11 04:54:52;;;;;;;11.52;8.27;;;17.20;99.90;;;;;;4591625;19;20006;-34
2022/10/11 04:56:23;;;;;;;10.88;8.48;;;17.20;99.90;;;;;;4592445;19;20329;-34
2022/10/11 04:57:54;;;;;;;10.23;8.93;;;17.20;99.90;;;;;;4591586;19;20551;-33
2022/10/11 04:59:25;;;;;;;11.27;8.98;;;17.20;99.90;;;;;;4589500;19;20010;-35
2022/10/11 05:00:57;;;;;;;13.38;9.73;;;17.20;99.90;;;;;;4591919;19;20018;-32
2022/10/11 05:02:28;;;;;;;11.52;9.30;;;17.20;99.90;;;;;;4590646;19;20014;-34
2022/10/11 05:03:59;;;;;;;13.77;9.30;;;17.20;99.90;;;;;;4590086;19;20015;-34
2022/10/11 05:05:30;;;;;;;12.73;9.45;;;17.30;99.90;;;;;;4590339;19;20025;-34
2022/10/11 05:07:02;;;;;;;12.85;9.35;;;17.30;99.90;;;;;;4592528;19;20025;-36
2022/10/11 05:08:33;;;;;;;12.05;9.10;;;17.30;99.90;;;;;;4592428;19;20068;-37
2022/10/11 05:10:04;;;;;;;11.07;8.65;;;17.30;99.90;;;;;;4591251;19;20021;-33
2022/10/11 05:11:35;;;;;;;13.35;8.15;;;17.30;99.90;;;;;;4590951;19;20006;-38
2022/10/11 05:13:06;;;;;;;13.23;8.30;;;17.30;99.90;;;;;;4590758;19;20027;-32
2022/10/11 05:14:37;;;;;;;11.52;9.20;;;17.30;99.90;;;;;;4590382;19;20449;-36
2022/10/11 05:16:09;;;;;;;10.73;8.25;;;17.30;99.90;;;;;;4592432;19;20014;-33
2022/10/11 05:17:40;;;;;;;10.48;8.63;;;17.30;99.90;;;;;;4590485;19;20022;-33
2022/10/11 05:19:11;;;;;;;11.13;8.63;;;17.40;99.90;;;;;;4592172;19;20014;-33
2022/10/11 05:20:42;;;;;;;8.82;7.93;;;17.40;99.90;;;;;;4591884;19;20470;-37
2022/10/11 05:22:13;;;;;;;13.55;8.02;;;17.50;99.90;;;;;;4591898;19;20082;-36
2022/10/11 05:23:45;;;;;;;12.02;9.75;;;17.50;99.90;;;;;;4590881;19;20015;-33
2022/10/11 05:25:16;;;;;;;;;;;15.90;99.90;;;;;;4589877;19;20082;-36
2022/10/11 05:26:47;;;;;;;13.87;10.47;;;15.00;99.90;;;;;;4591689;19;20317;-37
2022/10/11 05:28:18;;;;;;;11.80;10.40;;;14.60;99.90;;;;;;4590295;19;20015;-37
2022/10/11 05:29:49;;;;;;;13.50;10.70;;;14.40;99.90;;;;;;4591908;19;20017;-37
2022/10/11 05:31:20;;;;;;;13.43;10.65;;;14.30;99.90;;;;;;4591351;19;20010;-38
2022/10/11 05:32:51;;;;;;;12.63;10.43;;;14.30;99.90;;;;;;4591780;19;20022;-31
2022/10/11 05:34:22;;;;;;;13.23;11.13;;;14.20;99.90;;;;;;4590933;19;20041;-35
2022/10/11 05:35:53;;;;;;;12.02;10.50;;;14.20;99.90;;;;;;4590585;19;20010;-33
2022/10/11 05:37:25;;;;;;;13.32;11.60;;;14.10;99.90;;;;;;4591842;19;20593;-33
2022/10/11 05:38:56;;;;;;;15.32;12.75;;;14.10;99.90;;;;;;4590316;19;20035;-36
2022/10/11 05:40:27;;;;;;;15.40;12.07;;;14.10;99.90;;;;;;4590974;19;20003;-34
2022/10/11 05:41:58;;;;;;;15.20;12.32;;;14.10;99.90;;;;;;4590830;19;20018;-37
2022/10/11 05:43:29;;;;;;;14.80;12.38;;;14.10;99.90;;;;;;4589185;19;20015;-40
2022/10/11 05:45:00;;;;;;;16.40;12.73;;;14.00;99.90;;;;;;4589024;19;20015;-36
2022/10/11 05:46:32;;;;;;;16.08;12.88;;;14.00;99.90;;;;;;4590168;19;20019;-35
2022/10/11 05:48:03;;;;;;;15.50;12.38;;;14.00;99.90;;;;;;4591052;19;20050;-36
2022/10/11 05:49:34;;;;;;;14.90;11.88;;;14.00;99.90;;;;;;4589137;19;20067;-31
2022/10/11 05:51:08;;;;;;;16.30;13.02;;;14.00;99.90;;;;;;4588911;19;20317;-31
2022/10/11 05:52:39;;;;;;;14.67;13.10;;;14.00;99.90;;;;;;4591091;19;20084;-32
2022/10/11 05:54:10;;;;;;;14.95;11.80;;;14.00;99.90;;;;;;4589128;19;20010;-36
2022/10/11 05:55:42;;;;;;;14.60;11.87;;;14.00;99.90;;;;;;4591077;19;20391;-34
2022/10/11 05:57:15;;;;;;;12.90;10.65;;;14.00;99.90;;;;;;4590645;19;20452;-33
2022/10/11 05:58:46;;;;;;;14.03;11.40;;;13.90;99.90;;;;;;4590108;19;20456;-34
2022/10/11 06:00:20;;;;;;;14.65;12.02;;;14.00;99.90;;;;;;4590177;19;20337;-36
2022/10/11 06:01:54;;;;;;;12.90;10.40;;;14.00;99.90;;;;;;4588869;19;20019;-33
2022/10/11 06:03:34;;;;;;;13.90;11.10;;;14.00;99.90;;;;;;4590611;19;20021;-32
2022/10/11 06:05:05;;;;;;;15.63;10.93;;;14.00;99.90;;;;;;4589117;19;20015;-37
2022/10/11 06:06:36;;;;;;;15.38;11.18;;;14.00;99.90;;;;;;4590448;19;20364;-32
2022/10/11 06:08:09;;;;;;;13.80;10.82;;;14.00;99.90;;;;;;4591520;19;20014;-33
2022/10/11 06:09:40;;;;;;;13.23;10.57;;;14.00;99.90;;;;;;4589048;19;20015;-36
2022/10/11 06:11:24;;;;;;;14.38;10.90;;;14.00;99.90;;;;;;4590079;19;20015;-38
2022/10/11 06:12:55;;;;;;;12.93;10.37;;;14.00;99.90;;;;;;4590186;19;20034;-35
2022/10/11 06:14:26;;;;;;;12.23;9.80;;;14.00;99.90;;;;;;4589632;19;20014;-36
2022/10/11 06:15:57;;;;;;;10.70;8.43;;;14.00;99.90;;;;;;4590410;19;20322;-36
2022/10/11 06:17:28;;;;;;;10.70;9.18;;;14.00;99.90;;;;;;4589963;19;20036;-34
2022/10/11 06:18:59;;;;;;;11.45;8.98;;;14.00;99.90;;;;;;4589933;19;20018;-39
2022/10/11 06:20:30;;;;;;;9.73;8.18;;;14.00;99.90;;;;;;4589985;19;20483;-40
2022/10/11 06:22:02;;;;;;;10.98;8.52;;;14.00;99.90;;;;;;4590493;19;20017;-41
2022/10/11 06:23:33;;;;;;;8.40;7.60;;;14.00;99.90;;;;;;4589586;19;20022;-31
2022/10/11 06:25:05;;;;;;;8.63;7.40;;;14.00;99.90;;;;;;4588581;19;20102;-39
2022/10/11 06:26:36;;;;;;;9.20;7.47;;;14.00;99.90;;;;;;4588776;19;20457;-39
2022/10/11 06:28:07;;;;;;;8.25;6.75;;;14.00;99.90;;;;;;4590094;19;20062;-33
2022/10/11 06:29:38;;;;;;;9.48;7.40;;;14.00;99.90;;;;;;4594666;19;20034;-34
2022/10/11 06:31:09;;;;;;;9.20;8.00;;;14.00;99.90;;;;;;4594896;19;20052;-35
2022/10/11 06:32:41;;;;;;;8.43;6.78;;;14.00;99.90;;;;;;4595057;19;20011;-38
2022/10/11 06:34:12;;;;;;;9.15;7.57;;;14.00;99.90;;;;;;4594803;19;20014;-36
2022/10/11 06:35:43;;;;;;;8.82;6.88;;;14.00;99.90;;;;;;4595005;19;20349;-37
2022/10/11 06:37:14;;;;;;;8.52;6.30;;;14.00;99.90;;;;;;4594947;19;20021;-39
2022/10/11 06:38:45;;;;;;;6.20;5.03;;;14.00;99.90;;;;;;4593606;19;20014;-32
2022/10/11 06:40:16;;;;;;;8.68;6.18;;;14.00;99.90;;;;;;4595014;19;20024;-35
2022/10/11 06:41:47;;;;;;;7.63;5.75;;;14.10;99.90;;;;;;4595342;19;20014;-36
2022/10/11 06:43:18;;;;;;;8.27;5.28;;;14.10;99.90;;;;;;4594645;19;20022;-43
2022/10/11 06:44:50;;;;;;;7.00;5.07;;;14.10;99.90;;;;;;4593386;19;20385;-33
2022/10/11 06:46:22;;;;;;;5.70;4.45;;;14.10;99.90;;;;;;4594194;19;20010;-35
2022/10/11 06:47:53;;;;;;;5.93;4.90;;;14.10;99.90;;;;;;4594758;19;20108;-34
2022/10/11 06:49:24;;;;;;;7.30;5.03;;;14.10;99.90;;;;;;4594610;19;20014;-35
2022/10/11 06:50:59;;;;;;;6.57;5.30;;;14.10;99.90;;;;;;4593233;19;20085;-37
2022/10/11 06:52:30;;;;;;;8.43;5.10;;;14.10;99.90;;;;;;4594861;19;20005;-35
2022/10/11 06:54:02;;;;;;;6.00;4.57;;;14.10;99.90;;;;;;4594396;19;20340;-33
2022/10/11 06:55:33;;;;;;;6.55;4.53;;;14.20;99.90;;;;;;4593529;19;20014;-35
2022/10/11 06:57:04;;;;;;;5.75;4.00;;;14.20;99.90;;;;;;4594496;19;20018;-37
2022/10/11 06:58:36;;;;;;;5.13;3.72;;;14.20;99.90;;;;;;4593693;19;20033;-37
2022/10/11 07:00:08;;;;;;;4.53;3.60;;;14.20;99.90;;;;;;4594206;19;20015;-34
2022/10/11 07:01:39;;;;;;;;;;;14.20;99.90;;;;;;4595321;19;20357;-34
2022/10/11 07:03:10;;;;;;;4.20;3.13;;;14.20;99.90;;;;;;4594818;19;19927;-34
2022/10/11 07:04:41;;;;;;;4.65;3.38;;;14.20;99.90;;;;;;4594557;19;20010;-34
2022/10/11 07:06:15;;;;;;;5.28;3.08;;;14.20;99.90;;;;;;4594125;19;20337;-35
2022/10/11 07:07:47;;;;;;;4.97;3.37;;;14.20;99.90;;;;;;4593394;19;20040;-40
2022/10/11 07:09:18;;;;;;;4.90;3.65;;;14.20;99.90;;;;;;4592880;19;20007;-36
2022/10/11 07:10:50;;;;;;;6.18;3.58;;;14.20;99.90;;;;;;4593907;19;20085;-36
2022/10/11 07:12:21;;;;;;;5.82;4.22;;;14.30;99.90;;;;;;4593179;19;20030;-35
2022/10/11 07:13:54;;;;;;;6.00;3.40;;;14.30;99.90;;;;;;4593994;19;20007;-36
2022/10/11 07:15:25;;;;;;;3.87;2.90;;;14.30;99.90;;;;;;4594806;19;20040;-39
2022/10/11 07:16:56;;;;;;;3.47;2.63;;;14.30;99.90;;;;;;4594004;19;20018;-35
2022/10/11 07:18:27;;;;;;;4.93;2.95;;;14.30;99.90;;;;;;4593433;19;20006;-38
2022/10/11 07:19:58;;;;;;;5.57;2.95;;;14.30;99.90;;;;;;4594200;19;20385;-31
2022/10/11 07:21:30;;;;;;;4.93;2.65;;;14.30;99.90;;;;;;4594350;19;20019;-38
2022/10/11 07:23:01;;;;;;;4.60;2.70;;;14.30;99.90;;;;;;4593680;19;20011;-34
2022/10/11 07:24:32;;;;;;;4.50;2.65;;;14.40;99.90;;;;;;4593702;19;20075;-36
2022/10/11 07:26:04;;;;;;;7.65;3.47;;;14.70;99.90;;;;;;4591478;19;20014;-39
2022/10/11 07:27:35;;;;;;;;;;;15.00;99.90;;;;;;4594057;19;20014;-34
2022/10/11 07:29:06;;;;;;;6.60;3.27;;;15.30;99.90;;;;;;4593941;19;20237;-35
2022/10/11 07:30:38;;;;;;;6.45;2.42;;;15.40;99.90;;;;;;4594232;19;20022;-35
2022/10/11 07:32:10;;;;;;;7.90;3.05;;;15.60;99.90;;;;;;4594015;19;20022;-36
2022/10/11 07:33:41;;;;;;;4.63;1.83;;;15.70;99.90;;;;;;4593907;19;20014;-36
2022/10/11 07:35:12;;;;;;;7.28;2.58;;;15.80;99.90;;;;;;4593829;19;20025;-37
2022/10/11 07:36:43;;;;;;;5.65;2.00;;;15.90;99.90;;;;;;4594152;19;20012;-36
2022/10/11 07:38:14;;;;;;;5.28;2.13;;;15.90;99.90;;;;;;4593324;19;20014;-34
2022/10/11 07:39:47;;;;;;;5.63;2.08;;;16.00;99.90;;;;;;4593018;19;20019;-33
2022/10/11 07:41:18;;;;;;;6.45;2.60;;;16.10;99.90;;;;;;4592382;19;20023;-37
2022/10/11 07:42:50;;;;;;;8.30;2.88;;;16.10;99.90;;;;;;4593459;19;20007;-36
2022/10/11 07:44:21;;;;;;;6.72;2.40;;;16.20;99.90;;;;;;4594389;19;20009;-37
2022/10/11 07:45:54;;;;;;;5.53;2.30;;;16.20;99.90;;;;;;4593412;19;20010;-40
2022/10/11 07:47:25;;;;;;;6.90;3.03;;;16.20;99.90;;;;;;4593280;19;20018;-37
2022/10/11 07:48:56;;;;;;;8.15;2.60;;;16.30;99.90;;;;;;4592612;19;20317;-38
2022/10/11 07:50:27;;;;;;;6.25;1.88;;;16.30;99.90;;;;;;4593524;19;20007;-33
2022/10/11 07:51:58;;;;;;;4.25;1.58;;;16.30;99.90;;;;;;4592215;19;20018;-39
2022/10/11 07:53:29;;;;;;;6.75;2.65;;;16.30;99.90;;;;;;4593181;19;20019;-32
2022/10/11 07:55:01;;;;;;;5.78;2.15;;;16.30;99.90;;;;;;4593486;19;20015;-36
2022/10/11 07:56:32;;;;;;;6.38;1.83;;;16.40;99.90;;;;;;4592978;19;20011;-37
2022/10/11 07:58:03;;;;;;;5.47;2.45;;;16.40;99.90;;;;;;4592598;19;20029;-32
2022/10/11 07:59:34;;;;;;;5.40;2.13;;;16.50;99.90;;;;;;4593268;19;20010;-40